Mc Kellar Sipes Regional Airport
KMKL : now visible

Airfield :











YOU CAN JOIN US ON...

 
LOGIN :

Register | Disclaimer

   EN    FR    IT 

 









Legend :    VFR   Marginal VFR   IFR   Intensive IFR   Very Intensive IFR
Visi :
Ceiling :
>= 8 km
>= 3000ft
5 to 8 km
1000 to 3000 ft
1500m to 5 km
500 to 1000 ft
800 to 1500m
200 to 500 ft
< 800m
< 200 ft
Symbols :   Thunderstorms  Fog  Heavy snow  Heavy precipitations  Wind > 20 kt






- Airport Elevation : 434 ft
- IATA code : MKL


KMKL - Mc Kellar Sipes Regional

CURRENT METAR :
  • 022153Z 10SM CLR 31/14 A3006 RMK AO2 SLP174 T03060139

EXPIRED METARs :
  • 022053Z 20007KT 10SM CLR 31/13 A3007 RMK AO2 SLP178 T03110133 56019
  • 021953Z VRB03KT 10SM CLR 31/13 A3009 RMK AO2 SLP184 T03060128

TAF KMKL
Valid from the 02 at 18:00 until the 03 at 18:00 UTC


021742Z 0218/0318 22006KT P6SM FEW250
FM030100 VRB02KT P6SM SKC
FM031200 22005KT P6SM BKN250
KZME FIR / North America



MET'MAP, your aeronautical weather chart ! - Copyright ORBIFLY December 2007 - Disclaimer

ORBIFLY MET'MAP TEAM :

Programming & Development : Alexandra Zaïnal
Concept & original design : Baudouin d'Aumeries
Assistance for programming : Marc-Olivier Méhu
Technical & hardware support : Manuel Goepfert

Contact : metmap@orbifly.com




SOURCES & CREDITS :

   NOAA       Earth
Advisory